Time;durP1;ratioP1;P1;durP2;ratioP2;P2;SDS_P1;SDS_P2;PMS_P1;PMS_P2;Temp;Humidity;BMP_temperature;BMP_pressure;BME280_temperature;BME280_humidity;BME280_pressure;Samples;Min_cycle;Max_cycle;Signal;HPM_P1;HPM_P2
2022/07/08 00:02:07;;;;;;;15.25;2.95;;;14.30;99.90;;;;;;5053259;28;20043;-57
2022/07/08 00:04:33;;;;;;;11.25;2.78;;;14.30;99.90;;;;;;5053015;28;20029;-58
2022/07/08 00:06:58;;;;;;;10.15;2.92;;;14.30;99.90;;;;;;5052992;28;20047;-58
2022/07/08 00:09:26;;;;;;;14.23;3.10;;;14.20;99.90;;;;;;5053119;28;20068;-58
2022/07/08 00:11:52;;;;;;;13.85;3.33;;;14.10;99.90;;;;;;5051515;28;20025;-58
2022/07/08 00:14:18;;;;;;;16.20;3.33;;;14.20;99.90;;;;;;5052759;28;20465;-58
2022/07/08 00:16:44;;;;;;;10.93;3.55;;;14.20;99.90;;;;;;5052614;28;20025;-58
2022/07/08 00:19:14;;;;;;;10.32;3.20;;;14.20;99.90;;;;;;5052811;28;20038;-58
2022/07/08 00:21:44;;;;;;;17.30;3.65;;;14.00;99.90;;;;;;5053036;28;20029;-62
2022/07/08 00:24:13;;;;;;;14.07;3.25;;;14.00;99.90;;;;;;5052393;28;20056;-57
2022/07/08 00:26:41;;;;;;;13.40;3.55;;;14.00;99.90;;;;;;5052484;28;20044;-58
2022/07/08 00:29:07;;;;;;;9.70;3.10;;;14.00;99.90;;;;;;5052821;28;20025;-58
2022/07/08 00:31:33;;;;;;;13.65;3.45;;;14.00;99.90;;;;;;5052290;28;20029;-58
2022/07/08 00:33:59;;;;;;;11.63;3.35;;;14.00;99.90;;;;;;5052058;28;20021;-58
2022/07/08 00:36:25;;;;;;;15.68;3.65;;;14.00;99.90;;;;;;5052338;28;20036;-58
2022/07/08 00:38:51;;;;;;;14.80;3.88;;;14.00;99.90;;;;;;5052571;28;20021;-58
2022/07/08 00:41:17;;;;;;;17.30;4.03;;;14.00;99.90;;;;;;5052165;28;20492;-58
2022/07/08 00:43:45;;;;;;;13.65;3.58;;;13.90;99.90;;;;;;5052034;28;20016;-58
2022/07/08 00:46:12;;;;;;;14.00;3.55;;;13.90;99.90;;;;;;5051965;28;20033;-58
2022/07/08 00:48:38;;;;;;;12.55;3.83;;;13.80;99.90;;;;;;5052135;28;20025;-58
2022/07/08 00:51:08;;;;;;;10.85;2.92;;;13.90;99.90;;;;;;5052512;28;20025;-60
2022/07/08 00:53:37;;;;;;;8.68;3.17;;;13.90;99.90;;;;;;5051741;28;20048;-58
2022/07/08 00:56:04;;;;;;;13.48;3.25;;;13.90;99.90;;;;;;5051798;28;20447;-59
2022/07/08 00:58:32;;;;;;;13.25;3.35;;;13.90;99.90;;;;;;5052602;28;20025;-58
2022/07/08 01:00:58;;;;;;;12.15;3.45;;;13.90;99.90;;;;;;5051792;28;20028;-58
2022/07/08 01:03:24;;;;;;;17.90;3.33;;;13.80;99.90;;;;;;5051688;28;20424;-58
2022/07/08 01:05:50;;;;;;;9.23;3.20;;;13.90;99.90;;;;;;5051743;28;20108;-58
2022/07/08 01:08:16;;;;;;;15.32;3.35;;;13.80;99.90;;;;;;5051877;28;20056;-59
2022/07/08 01:10:42;;;;;;;13.35;3.50;;;13.90;99.90;;;;;;5051982;28;20067;-58
2022/07/08 01:13:07;;;;;;;12.88;3.72;;;13.90;99.90;;;;;;5051357;28;20029;-58
2022/07/08 01:15:34;;;;;;;13.75;3.42;;;13.90;99.90;;;;;;5050032;28;20029;-58
2022/07/08 01:18:00;;;;;;;11.20;3.50;;;13.90;99.90;;;;;;5052020;28;20474;-59
2022/07/08 01:20:25;;;;;;;10.52;3.13;;;13.90;99.90;;;;;;5051475;28;20427;-58
2022/07/08 01:22:51;;;;;;;15.65;3.60;;;13.80;99.90;;;;;;5051337;28;20107;-58
2022/07/08 01:25:17;;;;;;;14.10;3.33;;;13.80;99.90;;;;;;5051349;28;20032;-58
2022/07/08 01:27:43;;;;;;;11.55;3.83;;;13.80;99.90;;;;;;5051565;28;20028;-59
2022/07/08 01:30:09;;;;;;;13.20;2.97;;;13.70;99.90;;;;;;5051460;28;20529;-58
2022/07/08 01:32:37;;;;;;;10.50;3.40;;;13.70;99.90;;;;;;5051382;28;20033;-58
2022/07/08 01:35:04;;;;;;;14.40;3.75;;;13.60;99.90;;;;;;5051318;28;20441;-58
2022/07/08 01:37:30;;;;;;;13.88;3.67;;;13.60;99.90;;;;;;5051570;28;20091;-59
2022/07/08 01:39:56;;;;;;;16.17;3.92;;;13.60;99.90;;;;;;5051079;28;20390;-57
2022/07/08 01:42:21;;;;;;;11.95;3.40;;;13.60;99.90;;;;;;5051196;28;20121;-58
2022/07/08 01:44:47;;;;;;;15.77;3.63;;;13.60;99.90;;;;;;5051410;28;20253;-58
2022/07/08 01:47:13;;;;;;;12.23;3.38;;;13.50;99.90;;;;;;5050944;28;20032;-58
2022/07/08 01:49:38;;;;;;;13.45;3.13;;;13.60;99.90;;;;;;5051343;28;20029;-57
2022/07/08 01:52:08;;;;;;;15.38;3.53;;;13.50;99.90;;;;;;5050716;28;20045;-58
2022/07/08 01:54:33;;;;;;;13.65;3.42;;;13.50;99.90;;;;;;5050976;28;20394;-58
2022/07/08 01:57:15;;;;;;;15.85;3.58;;;13.50;99.90;;;;;;5050935;28;20029;-58
2022/07/08 01:59:44;;;;;;;11.68;3.20;;;13.50;99.90;;;;;;5050056;28;20021;-58
2022/07/08 02:02:11;;;;;;;13.15;3.33;;;13.40;99.90;;;;;;5051056;28;20025;-58
2022/07/08 02:04:37;;;;;;;13.48;3.53;;;13.30;99.90;;;;;;5050912;28;20416;-58
2022/07/08 02:07:04;;;;;;;11.90;2.95;;;13.30;99.90;;;;;;5051200;28;20035;-58
2022/07/08 02:09:29;;;;;;;16.05;4.07;;;13.40;99.90;;;;;;5051234;28;20060;-58
2022/07/08 02:14:39;;;;;;;11.35;3.47;;;13.30;99.90;;;;;;5050981;28;20465;-58
2022/07/08 02:17:05;;;;;;;9.98;3.33;;;13.20;99.90;;;;;;5050895;28;20064;-58
2022/07/08 02:19:31;;;;;;;13.15;3.53;;;13.20;99.90;;;;;;5051481;28;20107;-58
2022/07/08 02:21:57;;;;;;;10.38;3.15;;;13.20;99.90;;;;;;5051075;28;20563;-58
2022/07/08 02:24:23;;;;;;;13.15;3.47;;;13.20;99.90;;;;;;5051088;28;20100;-58
2022/07/08 02:26:48;;;;;;;14.10;4.00;;;13.10;99.90;;;;;;5050849;28;20025;-58
2022/07/08 02:29:14;;;;;;;12.43;3.70;;;13.10;99.90;;;;;;5050754;28;20478;-58
2022/07/08 02:31:40;;;;;;;15.52;4.28;;;13.10;99.90;;;;;;5050808;28;20608;-64
2022/07/08 02:34:06;;;;;;;15.77;4.20;;;13.10;99.90;;;;;;5050890;28;20021;-58
2022/07/08 02:36:31;;;;;;;15.82;3.72;;;13.10;99.90;;;;;;5053477;28;20029;-59
2022/07/08 02:38:57;;;;;;;14.30;4.22;;;13.00;99.90;;;;;;5055174;28;20032;-58
2022/07/08 02:41:22;;;;;;;17.05;4.00;;;13.00;99.90;;;;;;5054323;28;20496;-57
2022/07/08 02:43:48;;;;;;;14.52;3.88;;;13.00;99.90;;;;;;5054714;28;20025;-58
2022/07/08 02:46:14;;;;;;;8.95;3.42;;;13.00;99.90;;;;;;5054094;28;20405;-58
2022/07/08 02:48:39;;;;;;;11.57;3.80;;;12.90;99.90;;;;;;5054500;28;20497;-58
2022/07/08 02:51:05;;;;;;;16.30;4.30;;;13.00;99.90;;;;;;5054385;28;20025;-58
2022/07/08 02:53:31;;;;;;;13.38;3.60;;;12.90;99.90;;;;;;5053835;28;20122;-58
2022/07/08 02:55:57;;;;;;;18.08;4.40;;;13.00;99.90;;;;;;5054253;28;20108;-57
2022/07/08 02:58:23;;;;;;;12.80;4.07;;;13.00;99.90;;;;;;5053567;28;20488;-58
2022/07/08 03:00:49;;;;;;;13.45;4.00;;;13.00;99.90;;;;;;5054308;28;20039;-57
2022/07/08 03:03:14;;;;;;;15.00;4.05;;;13.00;99.90;;;;;;5054092;28;20072;-58
2022/07/08 03:05:40;;;;;;;19.33;3.88;;;13.00;99.90;;;;;;5053967;28;20040;-58
2022/07/08 03:08:06;;;;;;;16.67;4.35;;;12.90;99.90;;;;;;5054327;28;20029;-58
2022/07/08 03:10:31;;;;;;;11.65;3.95;;;12.90;99.90;;;;;;5054599;28;20151;-58
2022/07/08 03:12:57;;;;;;;16.25;4.03;;;12.80;99.90;;;;;;5053795;28;20021;-58
2022/07/08 03:15:22;;;;;;;14.73;3.38;;;12.90;99.90;;;;;;5054059;28;20490;-58
2022/07/08 03:17:48;;;;;;;16.33;4.15;;;12.90;99.90;;;;;;5053892;28;20028;-58
2022/07/08 03:20:14;;;;;;;14.65;3.60;;;12.80;99.90;;;;;;5053653;28;20029;-58
2022/07/08 03:22:40;;;;;;;16.50;4.63;;;12.80;99.90;;;;;;5053692;28;20478;-58
2022/07/08 03:25:06;;;;;;;18.85;4.85;;;12.80;99.90;;;;;;5053797;28;20033;-58
2022/07/08 03:27:31;;;;;;;19.05;4.10;;;12.80;99.90;;;;;;5053819;28;20071;-58
2022/07/08 03:29:57;;;;;;;17.70;4.00;;;12.90;99.90;;;;;;5053618;28;20028;-58
2022/07/08 03:32:23;;;;;;;15.73;3.78;;;12.80;99.90;;;;;;5053412;28;20103;-58
2022/07/08 03:34:49;;;;;;;12.70;4.05;;;12.80;99.90;;;;;;5052095;28;20127;-58
2022/07/08 03:37:15;;;;;;;15.10;4.22;;;12.80;99.90;;;;;;5053308;28;20048;-58
2022/07/08 03:39:41;;;;;;;12.50;3.78;;;12.70;99.90;;;;;;5053832;28;20029;-57
2022/07/08 03:42:07;;;;;;;11.18;3.92;;;12.70;99.90;;;;;;5053547;28;20412;-57
2022/07/08 03:44:32;;;;;;;13.85;4.18;;;12.60;99.90;;;;;;5053183;28;20103;-57
2022/07/08 03:46:58;;;;;;;22.20;4.55;;;12.60;99.90;;;;;;5051722;28;20028;-57
2022/07/08 03:49:24;;;;;;;22.20;4.72;;;12.60;99.90;;;;;;5053931;28;20029;-57
2022/07/08 03:51:49;;;;;;;17.80;4.15;;;12.70;99.90;;;;;;5053330;28;20478;-57
2022/07/08 03:54:15;;;;;;;16.92;4.55;;;12.60;99.90;;;;;;5052979;28;20079;-57
2022/07/08 03:56:40;;;;;;;15.88;4.78;;;12.70;99.90;;;;;;5053119;28;20029;-58
2022/07/08 03:59:06;;;;;;;18.58;4.70;;;12.70;99.90;;;;;;5053057;28;20025;-57
2022/07/08 04:01:32;;;;;;;12.15;4.35;;;12.70;99.90;;;;;;5053136;28;20033;-57
2022/07/08 04:03:57;;;;;;;21.73;5.18;;;12.70;99.90;;;;;;5052833;28;20733;-58
2022/07/08 04:06:23;;;;;;;16.00;4.30;;;12.60;99.90;;;;;;5052733;28;20033;-57
2022/07/08 04:08:49;;;;;;;13.23;4.20;;;12.50;99.90;;;;;;5052983;28;20058;-57
2022/07/08 04:11:15;;;;;;;13.75;3.83;;;12.30;99.90;;;;;;5052662;28;20070;-58
2022/07/08 04:13:40;;;;;;;17.33;4.20;;;12.20;99.90;;;;;;5052655;28;20032;-57
2022/07/08 04:16:11;;;;;;;13.68;4.75;;;12.30;99.90;;;;;;5052724;28;20482;-57
2022/07/08 04:18:39;;;;;;;14.02;4.50;;;12.40;99.90;;;;;;5052973;28;20070;-58
2022/07/08 04:21:05;;;;;;;17.23;4.57;;;12.40;99.90;;;;;;5052589;28;20033;-57
2022/07/08 04:23:31;;;;;;;16.48;4.78;;;12.50;99.90;;;;;;5052310;28;20095;-58
2022/07/08 04:25:57;;;;;;;15.32;4.40;;;12.50;99.90;;;;;;5052568;28;20053;-58
2022/07/08 04:28:22;;;;;;;17.52;4.95;;;12.60;99.90;;;;;;5052626;28;20025;-57
2022/07/08 04:30:48;;;;;;;17.98;4.70;;;12.50;99.90;;;;;;5052484;28;20067;-58
2022/07/08 04:33:14;;;;;;;14.45;4.38;;;12.60;99.90;;;;;;5051215;28;20427;-58
2022/07/08 04:35:39;;;;;;;19.65;5.50;;;12.70;99.90;;;;;;5052493;28;20478;-58
2022/07/08 04:38:05;;;;;;;16.33;4.65;;;12.80;99.90;;;;;;5052334;28;20098;-57
2022/07/08 04:40:31;;;;;;;15.55;4.40;;;12.90;99.90;;;;;;5052399;28;20037;-57
2022/07/08 04:42:57;;;;;;;16.80;4.50;;;12.90;99.90;;;;;;5052440;28;20059;-58
2022/07/08 04:45:23;;;;;;;15.80;4.75;;;12.90;99.90;;;;;;5052082;28;20021;-59
2022/07/08 04:47:49;;;;;;;18.02;4.72;;;13.00;99.90;;;;;;5034668;28;20577;-59
2022/07/08 04:50:15;;;;;;;18.27;4.53;;;13.10;99.90;;;;;;5051961;28;20033;-59
2022/07/08 04:52:41;;;;;;;17.52;4.47;;;13.10;99.90;;;;;;5051726;28;20049;-58
2022/07/08 04:55:07;;;;;;;13.20;4.15;;;13.20;99.90;;;;;;5051881;28;20044;-58
2022/07/08 04:57:33;;;;;;;16.83;4.47;;;13.20;99.90;;;;;;5052268;28;20386;-57
2022/07/08 04:59:59;;;;;;;14.10;4.55;;;13.30;99.90;;;;;;5051561;28;20036;-58
2022/07/08 05:02:26;;;;;;;16.88;4.35;;;13.40;99.90;;;;;;5051637;28;20127;-58
2022/07/08 05:04:52;;;;;;;17.13;4.43;;;13.50;99.90;;;;;;5051796;28;20083;-58
2022/07/08 05:07:18;;;;;;;14.95;4.78;;;13.60;99.90;;;;;;5052099;28;20394;-59
2022/07/08 05:09:44;;;;;;;21.33;5.10;;;13.60;99.90;;;;;;5052421;28;20028;-58
2022/07/08 05:12:10;;;;;;;18.30;5.38;;;13.70;99.90;;;;;;5052086;28;20056;-58
2022/07/08 05:14:35;;;;;;;12.48;4.25;;;13.70;99.90;;;;;;5052052;28;20017;-58
2022/07/08 05:17:01;;;;;;;15.32;4.32;;;13.80;99.90;;;;;;5051953;28;20570;-58
2022/07/08 05:19:27;;;;;;;18.23;4.43;;;13.80;99.90;;;;;;5051826;28;20096;-59
2022/07/08 05:21:52;;;;;;;14.48;4.13;;;13.90;99.90;;;;;;5051244;28;20155;-58
2022/07/08 05:24:18;;;;;;;15.93;4.50;;;14.00;99.90;;;;;;5051581;28;20028;-58
2022/07/08 05:26:44;;;;;;;18.75;4.88;;;14.10;99.90;;;;;;5051420;28;20029;-58
2022/07/08 05:29:09;;;;;;;16.90;4.60;;;14.20;99.90;;;;;;5051790;28;20100;-59
2022/07/08 05:31:35;;;;;;;21.65;5.00;;;14.20;99.90;;;;;;5052138;28;20043;-58
2022/07/08 05:34:01;;;;;;;20.02;4.90;;;14.10;99.90;;;;;;5051435;28;20508;-58
2022/07/08 05:36:26;;;;;;;14.52;3.85;;;14.20;99.90;;;;;;5051761;28;20041;-59
2022/07/08 05:38:52;;;;;;;17.00;4.57;;;14.30;99.90;;;;;;5051038;28;20025;-58
2022/07/08 05:41:18;;;;;;;16.92;5.32;;;14.30;99.90;;;;;;5051359;28;20025;-58
2022/07/08 05:43:43;;;;;;;13.77;3.83;;;14.30;99.90;;;;;;5051046;28;20025;-58
2022/07/08 05:46:09;;;;;;;15.50;4.20;;;14.40;99.90;;;;;;5051142;28;20025;-58
2022/07/08 05:48:35;;;;;;;16.85;4.88;;;14.60;99.90;;;;;;5051454;28;20488;-58
2022/07/08 05:51:00;;;;;;;18.40;4.40;;;14.60;99.90;;;;;;5049842;28;20063;-58
2022/07/08 05:53:26;;;;;;;15.90;4.13;;;14.70;99.90;;;;;;5049485;28;20041;-58
2022/07/08 05:55:52;;;;;;;17.55;4.10;;;14.80;99.90;;;;;;5051264;28;20123;-58
2022/07/08 05:58:17;;;;;;;19.75;4.78;;;14.80;99.90;;;;;;5049817;28;20083;-58
2022/07/08 06:00:43;;;;;;;12.98;4.30;;;14.90;99.90;;;;;;5050622;28;20025;-57
2022/07/08 06:03:08;;;;;;;21.13;4.22;;;15.00;99.90;;;;;;5050801;28;20088;-57
2022/07/08 06:05:34;;;;;;;15.50;4.60;;;15.00;99.90;;;;;;5050679;28;20047;-58
2022/07/08 06:08:00;;;;;;;15.60;3.92;;;15.20;99.90;;;;;;5051023;28;20040;-58
2022/07/08 06:10:29;;;;;;;15.90;4.47;;;15.30;99.90;;;;;;5053368;28;20275;-58
2022/07/08 06:12:54;;;;;;;17.42;4.30;;;15.40;99.90;;;;;;5054716;28;20104;-58
2022/07/08 06:15:21;;;;;;;12.18;3.97;;;15.50;99.90;;;;;;5055061;28;20270;-58
2022/07/08 06:17:46;;;;;;;16.05;4.45;;;15.70;99.90;;;;;;5055140;28;20345;-58
2022/07/08 06:20:14;;;;;;;15.32;4.22;;;15.80;99.90;;;;;;5054708;28;20029;-58
2022/07/08 06:22:40;;;;;;;19.30;4.65;;;15.90;99.90;;;;;;5053420;28;20028;-58
2022/07/08 06:25:06;;;;;;;15.35;3.80;;;15.80;99.90;;;;;;5054767;28;20075;-58
2022/07/08 06:27:32;;;;;;;16.98;3.90;;;16.00;99.90;;;;;;5054886;28;20452;-58
2022/07/08 06:29:57;;;;;;;13.55;3.58;;;16.20;99.90;;;;;;5055063;28;20025;-58
2022/07/08 06:32:23;;;;;;;15.00;3.72;;;16.40;99.90;;;;;;5054649;28;20021;-58
2022/07/08 06:34:49;;;;;;;12.98;3.22;;;16.40;99.90;;;;;;5054235;28;20033;-58
2022/07/08 06:37:15;;;;;;;17.08;3.90;;;16.60;99.90;;;;;;5054378;28;20496;-58
2022/07/08 06:39:41;;;;;;;11.70;2.92;;;16.50;99.90;;;;;;5054671;28;20056;-58
2022/07/08 06:42:07;;;;;;;21.27;3.55;;;16.60;99.90;;;;;;5054244;28;20028;-58
2022/07/08 06:44:32;;;;;;;11.32;2.63;;;16.70;99.90;;;;;;5053964;28;20405;-58
2022/07/08 06:46:58;;;;;;;9.85;2.78;;;17.30;99.90;;;;;;5054137;28;20118;-58
2022/07/08 06:49:24;;;;;;;10.85;2.50;;;18.40;99.90;;;;;;5054294;28;20234;-58
2022/07/08 06:51:50;;;;;;;11.40;2.40;;;20.20;99.90;;;;;;5053661;28;20037;-61
2022/07/08 06:56:59;;;;;;;13.73;2.88;;;23.10;99.90;;;;;;5054789;28;20040;-61
2022/07/08 06:59:25;;;;;;;11.27;3.20;;;24.50;99.90;;;;;;5054397;28;20025;-61
2022/07/08 07:01:52;;;;;;;12.15;2.83;;;25.10;98.00;;;;;;5053492;28;20119;-61
2022/07/08 07:04:17;;;;;;;7.50;2.58;;;25.00;97.70;;;;;;5053938;28;20028;-61
2022/07/08 07:06:43;;;;;;;10.43;2.63;;;26.10;96.00;;;;;;5053729;28;20025;-61
2022/07/08 07:09:09;;;;;;;12.43;3.00;;;26.10;95.10;;;;;;5053707;28;20469;-61
2022/07/08 07:11:35;;;;;;;10.75;2.60;;;26.50;93.90;;;;;;5054242;28;20490;-61
2022/07/08 07:14:01;;;;;;;12.27;2.60;;;26.90;93.10;;;;;;5053361;28;20095;-61
2022/07/08 07:16:27;;;;;;;7.75;2.38;;;27.10;92.70;;;;;;5053612;28;20043;-61
2022/07/08 07:18:53;;;;;;;11.13;2.50;;;26.70;92.70;;;;;;5053993;28;20108;-62
2022/07/08 07:21:18;;;;;;;7.63;2.05;;;26.40;93.40;;;;;;5052976;28;20401;-62
2022/07/08 07:23:44;;;;;;;10.88;2.83;;;26.50;93.10;;;;;;5053348;28;20473;-61
2022/07/08 07:26:09;;;;;;;10.95;2.25;;;26.90;92.50;;;;;;5053437;28;20039;-62
2022/07/08 07:28:35;;;;;;;8.85;1.92;;;27.10;91.80;;;;;;5052113;28;20056;-61
2022/07/08 07:31:01;;;;;;;10.48;2.03;;;26.60;92.50;;;;;;5052051;28;20036;-61
2022/07/08 07:33:27;;;;;;;7.28;2.20;;;26.00;93.80;;;;;;5053136;28;20082;-59
2022/07/08 07:35:52;;;;;;;12.30;2.25;;;25.00;94.90;;;;;;5053415;28;20029;-59
2022/07/08 07:38:18;;;;;;;8.15;2.35;;;24.60;95.90;;;;;;5053356;28;20045;-59
2022/07/08 07:40:44;;;;;;;11.23;2.20;;;25.10;95.40;;;;;;5051897;28;20036;-59
2022/07/08 07:43:09;;;;;;;10.82;2.05;;;25.80;94.60;;;;;;5053225;28;20029;-59
2022/07/08 07:45:35;;;;;;;11.50;2.63;;;26.80;94.10;;;;;;5053061;28;20107;-59
2022/07/08 07:48:00;;;;;;;11.43;2.72;;;27.50;91.60;;;;;;5052258;28;20497;-59
2022/07/08 07:50:26;;;;;;;10.98;2.40;;;28.00;90.40;;;;;;5052967;28;20039;-60
2022/07/08 07:52:53;;;;;;;7.38;2.17;;;28.00;90.20;;;;;;5052542;28;20041;-59
2022/07/08 07:55:18;;;;;;;7.63;2.00;;;27.50;90.70;;;;;;5053439;28;20028;-60
2022/07/08 07:57:46;;;;;;;9.88;2.30;;;27.80;90.60;;;;;;5053059;28;20025;-59
2022/07/08 08:00:13;;;;;;;6.10;2.15;;;27.70;89.60;;;;;;5053127;28;20029;-59
2022/07/08 08:02:39;;;;;;;8.30;2.45;;;27.40;88.60;;;;;;5052830;28;20482;-59
2022/07/08 08:05:05;;;;;;;12.95;2.20;;;26.80;90.00;;;;;;5053021;28;20029;-59
2022/07/08 08:07:31;;;;;;;11.40;2.35;;;26.30;90.80;;;;;;5052923;28;20040;-60
2022/07/08 08:09:56;;;;;;;8.80;2.08;;;26.60;90.40;;;;;;5052713;28;20029;-59
2022/07/08 08:12:22;;;;;;;9.85;2.08;;;26.80;90.80;;;;;;5052373;28;20478;-59
2022/07/08 08:14:48;;;;;;;10.88;2.35;;;27.50;89.40;;;;;;5052587;28;20025;-60
2022/07/08 08:17:13;;;;;;;10.70;2.30;;;27.50;87.50;;;;;;5052489;28;20399;-59
2022/07/08 08:19:39;;;;;;;7.75;1.88;;;28.20;86.90;;;;;;5052677;28;20083;-59
2022/07/08 08:22:04;;;;;;;11.00;2.05;;;28.10;85.50;;;;;;5052478;28;20551;-60
2022/07/08 08:24:30;;;;;;;8.88;2.10;;;28.20;86.60;;;;;;5052272;28;20052;-60
2022/07/08 08:26:56;;;;;;;6.50;2.25;;;28.50;86.20;;;;;;5052620;28;20478;-60
2022/07/08 08:29:21;;;;;;;12.25;2.10;;;28.90;84.90;;;;;;5052682;28;20032;-62
2022/07/08 08:31:47;;;;;;;10.10;2.35;;;29.70;82.70;;;;;;5052379;28;20036;-60
2022/07/08 08:34:13;;;;;;;7.93;2.30;;;29.10;81.30;;;;;;5051324;28;20021;-62
2022/07/08 08:36:38;;;;;;;8.80;2.15;;;29.20;81.60;;;;;;5052170;28;20021;-60
2022/07/08 08:39:04;;;;;;;10.65;2.40;;;28.40;84.10;;;;;;5051241;28;20021;-59
2022/07/08 08:41:30;;;;;;;8.02;1.88;;;28.30;84.40;;;;;;5052186;28;20028;-60
2022/07/08 08:43:56;;;;;;;9.85;2.45;;;29.00;82.90;;;;;;5052640;28;20430;-59
2022/07/08 08:46:23;;;;;;;9.77;2.20;;;28.50;82.60;;;;;;5051884;28;20033;-59
2022/07/08 08:48:53;;;;;;;9.25;2.40;;;28.40;84.10;;;;;;5051906;28;20029;-59
2022/07/08 08:51:21;;;;;;;9.38;2.70;;;28.30;83.60;;;;;;5051806;28;20095;-59
2022/07/08 08:53:47;;;;;;;8.80;2.15;;;27.20;85.50;;;;;;5051588;28;20033;-60
2022/07/08 08:56:15;;;;;;;8.18;2.30;;;27.60;85.30;;;;;;5052395;28;20029;-59
2022/07/08 08:58:46;;;;;;;10.35;2.33;;;27.50;85.70;;;;;;5052351;28;20033;-61
2022/07/08 09:01:13;;;;;;;8.20;2.28;;;27.60;85.70;;;;;;5051791;28;20033;-60
2022/07/08 09:03:39;;;;;;;9.93;2.38;;;27.40;85.10;;;;;;5051920;28;20021;-59
2022/07/08 09:06:05;;;;;;;9.82;2.35;;;26.70;86.40;;;;;;5051380;28;20036;-59
2022/07/08 09:08:32;;;;;;;8.73;2.50;;;26.40;86.90;;;;;;5050478;28;20052;-59
2022/07/08 09:10:58;;;;;;;8.38;1.80;;;27.00;86.50;;;;;;5051492;28;20032;-59
2022/07/08 09:13:25;;;;;;;12.05;2.33;;;27.60;84.30;;;;;;5051431;28;20508;-62
2022/07/08 09:15:54;;;;;;;6.38;1.73;;;28.60;81.90;;;;;;5051546;28;20032;-60
2022/07/08 09:18:27;;;;;;;6.80;1.83;;;30.00;77.50;;;;;;5051838;28;20024;-60
2022/07/08 09:20:54;;;;;;;11.82;2.20;;;30.10;77.10;;;;;;5051264;28;20079;-60
2022/07/08 09:23:29;;;;;;;7.40;2.22;;;30.20;76.40;;;;;;5050052;28;20242;-59
2022/07/08 09:26:00;;;;;;;8.20;1.85;;;29.20;78.00;;;;;;5051365;28;20397;-60
2022/07/08 09:28:36;;;;;;;8.10;2.05;;;29.20;78.00;;;;;;5051517;28;20028;-59
2022/07/08 09:31:03;;;;;;;7.95;2.00;;;29.30;77.60;;;;;;5051438;28;20374;-60
2022/07/08 09:33:29;;;;;;;7.20;2.00;;;29.10;77.70;;;;;;5051124;28;20477;-60
2022/07/08 09:36:00;;;;;;;6.63;2.10;;;28.90;77.90;;;;;;5051677;28;20028;-59
2022/07/08 09:38:26;;;;;;;7.63;2.38;;;27.70;81.10;;;;;;5051511;28;20024;-59
2022/07/08 09:40:59;;;;;;;5.30;1.60;;;27.50;82.10;;;;;;5050963;28;20389;-59
2022/07/08 09:43:26;;;;;;;8.30;2.15;;;27.40;81.80;;;;;;5050855;28;20036;-59
2022/07/08 09:45:52;;;;;;;8.30;2.30;;;26.70;84.30;;;;;;5050533;28;20052;-59
2022/07/08 09:48:18;;;;;;;6.32;2.03;;;27.10;84.70;;;;;;5051256;28;20020;-60
2022/07/08 09:50:48;;;;;;;8.13;2.05;;;28.20;80.20;;;;;;5050864;28;20040;-59
2022/07/08 09:53:22;;;;;;;5.30;2.17;;;28.70;79.20;;;;;;5050997;28;20063;-59
2022/07/08 09:55:53;;;;;;;8.95;2.03;;;29.20;77.90;;;;;;5051399;28;20033;-59
2022/07/08 09:58:26;;;;;;;5.97;1.77;;;30.20;76.40;;;;;;5051675;28;20032;-62
2022/07/08 10:00:53;;;;;;;6.03;1.90;;;31.10;73.80;;;;;;5050038;28;20409;-60
2022/07/08 10:03:20;;;;;;;8.82;2.00;;;31.30;73.60;;;;;;5051462;28;20051;-62
2022/07/08 10:05:46;;;;;;;8.48;2.08;;;31.30;72.90;;;;;;5051565;28;20397;-61
2022/07/08 10:08:12;;;;;;;5.28;1.77;;;31.30;73.10;;;;;;5051187;28;20025;-60
2022/07/08 10:10:39;;;;;;;7.80;2.00;;;29.70;76.00;;;;;;5051349;28;20033;-61
2022/07/08 10:13:06;;;;;;;10.40;2.20;;;29.70;76.00;;;;;;5051019;28;20355;-61
2022/07/08 10:15:35;;;;;;;7.85;1.70;;;29.30;77.00;;;;;;5051253;28;20033;-61
2022/07/08 10:18:22;;;;;;;4.97;1.73;;;29.20;77.10;;;;;;5051421;28;20096;-61
2022/07/08 10:20:54;;;;;;;11.40;1.95;;;29.80;77.90;;;;;;5051027;28;20117;-61
2022/07/08 10:23:26;;;;;;;5.28;1.98;;;30.80;75.20;;;;;;5051458;28;20029;-61
2022/07/08 10:25:55;;;;;;;5.90;2.00;;;31.00;73.30;;;;;;5051313;28;20576;-61
2022/07/08 10:28:37;;;;;;;7.55;1.95;;;31.70;72.20;;;;;;5051472;28;20129;-61
2022/07/08 10:31:02;;;;;;;;;;;30.50;74.50;;;;;;5050215;28;20025;-61
2022/07/08 10:33:31;;;;;;;6.57;1.98;;;30.40;73.80;;;;;;5050800;28;19940;-61
2022/07/08 10:36:02;;;;;;;6.90;1.90;;;31.20;72.10;;;;;;5050743;28;20498;-61
2022/07/08 10:38:38;;;;;;;7.88;2.30;;;30.80;72.70;;;;;;5051602;28;20382;-61
2022/07/08 10:41:06;;;;;;;7.07;1.80;;;30.10;73.60;;;;;;5050999;28;20037;-61
2022/07/08 10:43:32;;;;;;;10.43;2.45;;;29.60;75.00;;;;;;5050852;28;20021;-61
2022/07/08 10:46:00;;;;;;;5.18;1.75;;;28.90;75.90;;;;;;5050322;28;20123;-61
2022/07/08 10:48:45;;;;;;;11.55;2.20;;;28.80;76.10;;;;;;5050608;28;20021;-60
2022/07/08 10:51:19;;;;;;;7.28;2.35;;;29.50;75.50;;;;;;5050385;28;20390;-60
2022/07/08 10:53:52;;;;;;;9.23;1.67;;;29.60;73.40;;;;;;5050062;28;20529;-60
2022/07/08 10:56:56;;;;;;;6.25;1.80;;;28.60;76.80;;;;;;5050919;28;20385;-61
2022/07/08 10:59:31;;;;;;;10.02;2.30;;;29.70;75.00;;;;;;5054326;28;20029;-61
2022/07/08 11:02:13;;;;;;;6.53;2.10;;;29.30;77.90;;;;;;5053777;28;20025;-61
2022/07/08 11:04:39;;;;;;;8.48;1.80;;;29.90;74.10;;;;;;5054091;28;20035;-61
2022/07/08 11:07:29;;;;;;;5.43;1.80;;;29.90;74.80;;;;;;5054460;28;20037;-60
2022/07/08 11:09:54;;;;;;;6.13;1.88;;;29.80;74.90;;;;;;5054084;28;20393;-61
2022/07/08 11:12:26;;;;;;;8.98;2.22;;;30.90;73.60;;;;;;5054135;28;20033;-62
2022/07/08 11:14:55;;;;;;;5.28;1.70;;;31.30;71.90;;;;;;5053697;28;20086;-61
2022/07/08 11:17:23;;;;;;;6.10;1.98;;;31.30;72.00;;;;;;5052785;28;20017;-61
2022/07/08 11:19:51;;;;;;;10.25;2.13;;;30.80;72.00;;;;;;5053961;28;20497;-61
2022/07/08 11:22:17;;;;;;;8.15;2.10;;;31.00;71.20;;;;;;5053933;28;20082;-60
2022/07/08 11:24:44;;;;;;;7.07;1.90;;;31.10;71.70;;;;;;5053776;28;20091;-61
2022/07/08 11:27:10;;;;;;;8.23;1.80;;;31.80;72.00;;;;;;5053625;28;20407;-61
2022/07/08 11:29:36;;;;;;;5.57;1.58;;;31.80;70.10;;;;;;5052242;28;20446;-61
2022/07/08 11:32:04;;;;;;;5.68;1.73;;;31.00;71.00;;;;;;5052522;28;20128;-61
2022/07/08 11:34:31;;;;;;;7.13;2.15;;;31.50;72.00;;;;;;5053136;28;20501;-61
2022/07/08 11:37:02;;;;;;;7.95;1.95;;;32.20;69.40;;;;;;5053220;28;20079;-61
2022/07/08 11:39:28;;;;;;;10.60;2.07;;;31.70;71.20;;;;;;5053525;28;20067;-61
2022/07/08 11:41:54;;;;;;;13.50;2.45;;;30.80;70.50;;;;;;5053209;28;20033;-61
2022/07/08 11:44:21;;;;;;;7.47;1.80;;;30.20;72.20;;;;;;5053486;28;20075;-61
2022/07/08 11:46:51;;;;;;;8.80;2.20;;;30.90;71.30;;;;;;5053053;28;20082;-60
2022/07/08 11:49:19;;;;;;;7.25;2.00;;;31.70;69.50;;;;;;5053538;28;20087;-60
2022/07/08 11:51:48;;;;;;;9.18;2.00;;;31.90;68.90;;;;;;5052753;28;20118;-61
2022/07/08 11:54:14;;;;;;;6.28;2.00;;;32.00;68.70;;;;;;5053012;28;20029;-60
2022/07/08 11:56:41;;;;;;;4.57;1.70;;;31.70;69.40;;;;;;5052806;28;20060;-60
2022/07/08 11:59:07;;;;;;;8.90;2.10;;;30.20;72.60;;;;;;5053118;28;20017;-61
2022/07/08 12:01:33;;;;;;;6.80;1.92;;;30.10;73.60;;;;;;5051602;28;20029;-60
2022/07/08 12:04:03;;;;;;;7.20;2.15;;;30.90;72.50;;;;;;5052667;28;20052;-60
2022/07/08 12:06:28;;;;;;;7.13;2.15;;;31.50;70.50;;;;;;5052551;28;20115;-61
2022/07/08 12:08:54;;;;;;;7.55;2.22;;;32.00;69.50;;;;;;5053286;28;20499;-60
2022/07/08 12:11:27;;;;;;;6.43;2.20;;;31.70;68.30;;;;;;5052465;28;20033;-61
2022/07/08 12:13:57;;;;;;;5.38;1.90;;;30.90;71.00;;;;;;5052447;28;20029;-61
2022/07/08 12:16:30;;;;;;;7.78;1.88;;;31.40;70.10;;;;;;5052675;28;20541;-61
2022/07/08 12:18:56;;;;;;;6.40;1.73;;;31.70;70.20;;;;;;5052767;28;20442;-61
2022/07/08 12:21:22;;;;;;;8.10;1.95;;;32.50;69.20;;;;;;5052740;28;20115;-61
2022/07/08 12:24:15;;;;;;;8.00;2.05;;;32.10;68.00;;;;;;5052251;28;20086;-61
2022/07/08 12:26:52;;;;;;;5.97;2.33;;;32.80;68.50;;;;;;5051463;28;20071;-59
2022/07/08 12:29:19;;;;;;;5.95;1.95;;;32.80;66.90;;;;;;5052819;28;20405;-59
2022/07/08 12:31:45;;;;;;;6.68;1.90;;;32.60;66.80;;;;;;5052555;28;20086;-59
2022/07/08 12:34:17;;;;;;;6.70;2.00;;;33.00;65.70;;;;;;5052292;28;20020;-59
2022/07/08 12:36:42;;;;;;;3.53;1.70;;;33.10;65.00;;;;;;5052938;28;20032;-59
2022/07/08 12:39:20;;;;;;;5.03;1.73;;;33.10;66.10;;;;;;5052694;28;20401;-59
2022/07/08 12:42:00;;;;;;;7.20;2.05;;;32.80;68.30;;;;;;5052521;28;20504;-59
2022/07/08 12:44:39;;;;;;;8.10;2.25;;;33.10;66.20;;;;;;5052757;28;20071;-60
2022/07/08 12:47:15;;;;;;;6.22;1.85;;;33.40;65.50;;;;;;5052164;28;20040;-60